sensor_id;sensor_type;location;lat;lon;timestamp;pressure;altitude;pressure_sealevel;temperature;humidity
51053;BME280;37093;37.716;-122.060;2023-06-26T00:01:06;100111.52;;;20.12;42.31
51053;BME280;37093;37.716;-122.060;2023-06-26T00:03:35;100106.83;;;20.37;41.55
51053;BME280;37093;37.716;-122.060;2023-06-26T00:06:03;100112.40;;;20.58;40.87
51053;BME280;37093;37.716;-122.060;2023-06-26T00:08:31;100108.53;;;20.39;41.27
51053;BME280;37093;37.716;-122.060;2023-06-26T00:11:00;100111.99;;;19.96;41.25
51053;BME280;37093;37.716;-122.060;2023-06-26T00:13:28;100106.43;;;20.87;40.35
51053;BME280;37093;37.716;-122.060;2023-06-26T00:15:57;100106.90;;;21.10;39.96
51053;BME280;37093;37.716;-122.060;2023-06-26T00:18:25;100097.79;;;20.34;41.28
51053;BME280;37093;37.716;-122.060;2023-06-26T00:20:54;100097.42;;;20.59;40.75
51053;BME280;37093;37.716;-122.060;2023-06-26T00:23:22;100096.07;;;20.45;41.91
51053;BME280;37093;37.716;-122.060;2023-06-26T00:25:51;100101.19;;;20.16;42.12
51053;BME280;37093;37.716;-122.060;2023-06-26T00:28:20;100103.65;;;20.29;42.21
51053;BME280;37093;37.716;-122.060;2023-06-26T00:30:48;100096.74;;;20.02;42.10
51053;BME280;37093;37.716;-122.060;2023-06-26T00:33:16;100097.09;;;20.31;41.75
51053;BME280;37093;37.716;-122.060;2023-06-26T00:35:45;100101.19;;;19.85;43.69
51053;BME280;37093;37.716;-122.060;2023-06-26T00:38:13;100102.25;;;19.73;44.36
51053;BME280;37093;37.716;-122.060;2023-06-26T00:40:42;100100.79;;;19.08;46.24
51053;BME280;37093;37.716;-122.060;2023-06-26T00:43:10;100104.27;;;19.29;44.37
51053;BME280;37093;37.716;-122.060;2023-06-26T00:45:39;100104.43;;;19.08;45.22
51053;BME280;37093;37.716;-122.060;2023-06-26T00:48:08;100105.55;;;19.29;46.06
51053;BME280;37093;37.716;-122.060;2023-06-26T00:50:36;100106.40;;;19.30;45.88
51053;BME280;37093;37.716;-122.060;2023-06-26T00:53:04;100103.23;;;19.28;44.85
51053;BME280;37093;37.716;-122.060;2023-06-26T00:55:33;100103.16;;;18.77;45.23
51053;BME280;37093;37.716;-122.060;2023-06-26T00:58:02;100104.57;;;19.28;44.23
51053;BME280;37093;37.716;-122.060;2023-06-26T01:00:30;100102.39;;;18.73;45.14
51053;BME280;37093;37.716;-122.060;2023-06-26T01:02:58;100105.28;;;18.52;45.64
51053;BME280;37093;37.716;-122.060;2023-06-26T01:05:28;100105.17;;;19.00;45.02
51053;BME280;37093;37.716;-122.060;2023-06-26T01:07:58;100104.82;;;18.12;46.94
51053;BME280;37093;37.716;-122.060;2023-06-26T01:10:27;100105.63;;;18.16;47.22
51053;BME280;37093;37.716;-122.060;2023-06-26T01:12:55;100102.94;;;18.65;45.25
51053;BME280;37093;37.716;-122.060;2023-06-26T01:15:24;100099.69;;;17.84;46.71
51053;BME280;37093;37.716;-122.060;2023-06-26T01:17:54;100105.79;;;18.45;46.39
51053;BME280;37093;37.716;-122.060;2023-06-26T01:20:23;100103.94;;;18.09;46.58
51053;BME280;37093;37.716;-122.060;2023-06-26T01:23:02;100100.73;;;17.98;47.59
51053;BME280;37093;37.716;-122.060;2023-06-26T01:25:35;100097.39;;;17.64;48.57
51053;BME280;37093;37.716;-122.060;2023-06-26T01:28:06;100100.74;;;17.88;47.91
51053;BME280;37093;37.716;-122.060;2023-06-26T01:30:37;100100.58;;;18.25;46.25
51053;BME280;37093;37.716;-122.060;2023-06-26T01:33:06;100103.18;;;18.18;46.56
51053;BME280;37093;37.716;-122.060;2023-06-26T01:35:35;100099.99;;;18.39;45.54
51053;BME280;37093;37.716;-122.060;2023-06-26T01:38:13;100103.21;;;18.27;46.75
51053;BME280;37093;37.716;-122.060;2023-06-26T01:40:42;100097.02;;;17.54;49.00
51053;BME280;37093;37.716;-122.060;2023-06-26T01:43:15;100099.66;;;17.87;48.00
51053;BME280;37093;37.716;-122.060;2023-06-26T01:45:50;100101.00;;;17.97;47.42
51053;BME280;37093;37.716;-122.060;2023-06-26T01:48:23;100099.52;;;18.02;47.50
51053;BME280;37093;37.716;-122.060;2023-06-26T01:50:54;100105.15;;;18.12;47.70
51053;BME280;37093;37.716;-122.060;2023-06-26T01:53:26;100105.87;;;18.22;47.03
51053;BME280;37093;37.716;-122.060;2023-06-26T01:56:03;100101.66;;;18.25;46.59
51053;BME280;37093;37.716;-122.060;2023-06-26T01:58:34;100103.42;;;18.05;47.57
51053;BME280;37093;37.716;-122.060;2023-06-26T02:01:03;100102.79;;;16.33;52.36
51053;BME280;37093;37.716;-122.060;2023-06-26T02:03:32;100098.84;;;17.58;48.83
51053;BME280;37093;37.716;-122.060;2023-06-26T02:06:00;100099.19;;;17.38;50.48
51053;BME280;37093;37.716;-122.060;2023-06-26T02:08:29;100092.58;;;18.11;47.99
51053;BME280;37093;37.716;-122.060;2023-06-26T02:10:58;100092.18;;;17.78;49.13
51053;BME280;37093;37.716;-122.060;2023-06-26T02:13:26;100089.29;;;17.53;48.97
51053;BME280;37093;37.716;-122.060;2023-06-26T02:15:54;100087.83;;;17.94;48.34
51053;BME280;37093;37.716;-122.060;2023-06-26T02:18:23;100087.09;;;17.61;49.15
51053;BME280;37093;37.716;-122.060;2023-06-26T02:20:51;100089.10;;;17.53;48.73
51053;BME280;37093;37.716;-122.060;2023-06-26T02:23:20;100094.67;;;17.64;49.56
51053;BME280;37093;37.716;-122.060;2023-06-26T02:25:48;100094.11;;;17.26;50.31
51053;BME280;37093;37.716;-122.060;2023-06-26T02:28:17;100092.73;;;17.57;50.59
51053;BME280;37093;37.716;-122.060;2023-06-26T02:30:47;100090.89;;;17.47;49.31
51053;BME280;37093;37.716;-122.060;2023-06-26T02:33:15;100089.20;;;18.17;47.42
51053;BME280;37093;37.716;-122.060;2023-06-26T02:35:43;100089.76;;;17.96;47.03
51053;BME280;37093;37.716;-122.060;2023-06-26T02:38:12;100089.28;;;18.06;47.73
51053;BME280;37093;37.716;-122.060;2023-06-26T02:40:40;100090.48;;;17.74;47.82
51053;BME280;37093;37.716;-122.060;2023-06-26T02:43:09;100092.67;;;17.66;48.11
51053;BME280;37093;37.716;-122.060;2023-06-26T02:45:37;100094.82;;;17.92;47.70
51053;BME280;37093;37.716;-122.060;2023-06-26T02:48:06;100093.67;;;18.38;46.82
51053;BME280;37093;37.716;-122.060;2023-06-26T02:50:35;100091.23;;;18.44;46.69
51053;BME280;37093;37.716;-122.060;2023-06-26T02:53:04;100095.37;;;18.12;47.25
51053;BME280;37093;37.716;-122.060;2023-06-26T02:55:33;100087.96;;;17.46;47.79
51053;BME280;37093;37.716;-122.060;2023-06-26T02:58:02;100088.38;;;17.19;48.51
51053;BME280;37093;37.716;-122.060;2023-06-26T03:00:30;100088.00;;;16.47;51.08
51053;BME280;37093;37.716;-122.060;2023-06-26T03:02:59;100087.10;;;17.77;47.69
51053;BME280;37093;37.716;-122.060;2023-06-26T03:05:27;100085.97;;;17.65;47.42
51053;BME280;37093;37.716;-122.060;2023-06-26T03:07:56;100084.02;;;17.94;46.75
51053;BME280;37093;37.716;-122.060;2023-06-26T03:10:24;100089.90;;;17.32;48.01
51053;BME280;37093;37.716;-122.060;2023-06-26T03:12:53;100094.65;;;16.98;49.37
51053;BME280;37093;37.716;-122.060;2023-06-26T03:15:21;100092.52;;;16.81;49.81
51053;BME280;37093;37.716;-122.060;2023-06-26T03:17:50;100094.49;;;15.88;52.61
51053;BME280;37093;37.716;-122.060;2023-06-26T03:20:18;100093.26;;;15.61;53.14
51053;BME280;37093;37.716;-122.060;2023-06-26T03:22:47;100091.72;;;16.43;51.56
51053;BME280;37093;37.716;-122.060;2023-06-26T03:25:15;100084.10;;;16.84;50.08
51053;BME280;37093;37.716;-122.060;2023-06-26T03:27:44;100081.83;;;17.22;49.90
51053;BME280;37093;37.716;-122.060;2023-06-26T03:30:13;100080.65;;;17.15;50.14
51053;BME280;37093;37.716;-122.060;2023-06-26T03:32:41;100086.21;;;16.30;52.22
51053;BME280;37093;37.716;-122.060;2023-06-26T03:35:10;100089.67;;;16.12;52.40
51053;BME280;37093;37.716;-122.060;2023-06-26T03:37:38;100091.65;;;16.48;52.48
51053;BME280;37093;37.716;-122.060;2023-06-26T03:40:08;100089.82;;;16.83;51.87
51053;BME280;37093;37.716;-122.060;2023-06-26T03:42:36;100090.67;;;16.42;52.26
51053;BME280;37093;37.716;-122.060;2023-06-26T03:45:05;100088.60;;;16.65;52.39
51053;BME280;37093;37.716;-122.060;2023-06-26T03:47:34;100084.04;;;15.96;53.73
51053;BME280;37093;37.716;-122.060;2023-06-26T03:50:03;100087.27;;;15.85;54.59
51053;BME280;37093;37.716;-122.060;2023-06-26T03:52:31;100093.80;;;15.91;53.89
51053;BME280;37093;37.716;-122.060;2023-06-26T03:55:00;100094.50;;;16.36;52.85
51053;BME280;37093;37.716;-122.060;2023-06-26T03:57:28;100100.93;;;16.60;51.93
51053;BME280;37093;37.716;-122.060;2023-06-26T03:59:56;100105.98;;;16.69;51.79
51053;BME280;37093;37.716;-122.060;2023-06-26T04:02:25;100102.44;;;16.69;50.62
51053;BME280;37093;37.716;-122.060;2023-06-26T04:04:53;100100.02;;;16.99;50.56
51053;BME280;37093;37.716;-122.060;2023-06-26T04:07:21;100103.35;;;17.05;49.89
51053;BME280;37093;37.716;-122.060;2023-06-26T04:09:49;100103.76;;;16.13;50.96
51053;BME280;37093;37.716;-122.060;2023-06-26T04:12:18;100103.08;;;16.21;51.51
51053;BME280;37093;37.716;-122.060;2023-06-26T04:14:46;100103.30;;;16.60;51.84
51053;BME280;37093;37.716;-122.060;2023-06-26T04:17:15;100104.78;;;16.47;53.00
51053;BME280;37093;37.716;-122.060;2023-06-26T04:19:43;100114.25;;;16.47;51.95
51053;BME280;37093;37.716;-122.060;2023-06-26T04:22:12;100113.49;;;16.13;51.72
51053;BME280;37093;37.716;-122.060;2023-06-26T04:24:40;100117.96;;;15.95;52.82
51053;BME280;37093;37.716;-122.060;2023-06-26T04:27:09;100119.51;;;16.22;52.45
51053;BME280;37093;37.716;-122.060;2023-06-26T04:29:38;100120.90;;;16.14;52.92
51053;BME280;37093;37.716;-122.060;2023-06-26T04:32:06;100122.28;;;16.73;51.26
51053;BME280;37093;37.716;-122.060;2023-06-26T04:34:35;100122.30;;;16.65;49.52
51053;BME280;37093;37.716;-122.060;2023-06-26T04:37:03;100122.74;;;17.01;49.55
51053;BME280;37093;37.716;-122.060;2023-06-26T04:39:31;100124.76;;;17.06;49.63
51053;BME280;37093;37.716;-122.060;2023-06-26T04:42:00;100130.77;;;17.45;49.57
51053;BME280;37093;37.716;-122.060;2023-06-26T04:44:29;100134.46;;;17.05;49.96
51053;BME280;37093;37.716;-122.060;2023-06-26T04:46:57;100134.79;;;17.37;49.71
51053;BME280;37093;37.716;-122.060;2023-06-26T04:49:26;100138.78;;;16.94;49.75
51053;BME280;37093;37.716;-122.060;2023-06-26T04:51:54;100141.52;;;17.07;50.71
51053;BME280;37093;37.716;-122.060;2023-06-26T04:54:23;100141.36;;;16.39;51.81
51053;BME280;37093;37.716;-122.060;2023-06-26T04:56:51;100150.56;;;15.90;53.85
51053;BME280;37093;37.716;-122.060;2023-06-26T04:59:20;100152.67;;;15.69;55.14
51053;BME280;37093;37.716;-122.060;2023-06-26T05:01:48;100146.20;;;16.26;52.71
51053;BME280;37093;37.716;-122.060;2023-06-26T05:04:17;100140.21;;;16.33;52.48
51053;BME280;37093;37.716;-122.060;2023-06-26T05:06:45;100144.21;;;15.93;52.65
51053;BME280;37093;37.716;-122.060;2023-06-26T05:09:14;100147.29;;;16.44;52.20
51053;BME280;37093;37.716;-122.060;2023-06-26T05:11:42;100148.96;;;16.22;52.57
51053;BME280;37093;37.716;-122.060;2023-06-26T05:14:11;100152.04;;;15.92;53.95
51053;BME280;37093;37.716;-122.060;2023-06-26T05:16:39;100147.95;;;16.26;52.32
51053;BME280;37093;37.716;-122.060;2023-06-26T05:19:08;100142.52;;;16.46;50.31
51053;BME280;37093;37.716;-122.060;2023-06-26T05:21:37;100149.11;;;16.67;50.30
51053;BME280;37093;37.716;-122.060;2023-06-26T05:24:06;100152.12;;;16.77;49.48
51053;BME280;37093;37.716;-122.060;2023-06-26T05:26:37;100145.53;;;16.48;50.46
51053;BME280;37093;37.716;-122.060;2023-06-26T05:29:06;100150.28;;;16.18;51.50
51053;BME280;37093;37.716;-122.060;2023-06-26T05:31:38;100151.92;;;15.87;53.49
51053;BME280;37093;37.716;-122.060;2023-06-26T05:34:08;100150.12;;;16.17;52.64
51053;BME280;37093;37.716;-122.060;2023-06-26T05:36:39;100157.61;;;15.29;54.13
51053;BME280;37093;37.716;-122.060;2023-06-26T05:39:09;100156.07;;;15.43;53.20
51053;BME280;37093;37.716;-122.060;2023-06-26T05:41:38;100148.56;;;15.99;51.73
51053;BME280;37093;37.716;-122.060;2023-06-26T05:44:06;100145.46;;;16.44;50.50
51053;BME280;37093;37.716;-122.060;2023-06-26T05:46:35;100146.55;;;16.49;50.17
51053;BME280;37093;37.716;-122.060;2023-06-26T05:49:03;100153.03;;;15.88;53.04
51053;BME280;37093;37.716;-122.060;2023-06-26T05:51:32;100152.13;;;16.35;52.26
51053;BME280;37093;37.716;-122.060;2023-06-26T05:54:01;100147.16;;;16.19;52.42
51053;BME280;37093;37.716;-122.060;2023-06-26T05:56:30;100153.61;;;15.66;53.73
51053;BME280;37093;37.716;-122.060;2023-06-26T05:58:58;100147.53;;;16.23;52.11
51053;BME280;37093;37.716;-122.060;2023-06-26T06:01:27;100149.43;;;17.04;49.41
51053;BME280;37093;37.716;-122.060;2023-06-26T06:03:55;100148.72;;;16.54;50.22
51053;BME280;37093;37.716;-122.060;2023-06-26T06:06:23;100146.94;;;16.99;50.15
51053;BME280;37093;37.716;-122.060;2023-06-26T06:08:52;100143.84;;;16.44;51.26
51053;BME280;37093;37.716;-122.060;2023-06-26T06:11:20;100150.92;;;16.79;51.13
51053;BME280;37093;37.716;-122.060;2023-06-26T06:13:49;100149.89;;;16.58;51.35
51053;BME280;37093;37.716;-122.060;2023-06-26T06:16:17;100147.57;;;16.60;51.36
51053;BME280;37093;37.716;-122.060;2023-06-26T06:18:46;100150.52;;;16.67;49.46
51053;BME280;37093;37.716;-122.060;2023-06-26T06:21:14;100151.52;;;16.87;51.28
51053;BME280;37093;37.716;-122.060;2023-06-26T06:23:43;100151.98;;;16.05;53.16
51053;BME280;37093;37.716;-122.060;2023-06-26T06:26:11;100150.15;;;16.15;53.37
51053;BME280;37093;37.716;-122.060;2023-06-26T06:28:40;100153.02;;;16.20;52.91
51053;BME280;37093;37.716;-122.060;2023-06-26T06:31:09;100152.63;;;16.24;52.42
51053;BME280;37093;37.716;-122.060;2023-06-26T06:33:38;100146.22;;;16.58;52.25
51053;BME280;37093;37.716;-122.060;2023-06-26T06:36:06;100152.75;;;16.44;51.85
51053;BME280;37093;37.716;-122.060;2023-06-26T06:38:34;100152.90;;;16.59;52.33
51053;BME280;37093;37.716;-122.060;2023-06-26T06:41:03;100155.69;;;16.12;53.37
51053;BME280;37093;37.716;-122.060;2023-06-26T06:43:31;100153.63;;;16.44;52.53
51053;BME280;37093;37.716;-122.060;2023-06-26T06:46:00;100152.12;;;16.97;51.29
51053;BME280;37093;37.716;-122.060;2023-06-26T06:48:28;100153.88;;;16.65;51.19
51053;BME280;37093;37.716;-122.060;2023-06-26T06:50:57;100150.07;;;16.08;52.84
51053;BME280;37093;37.716;-122.060;2023-06-26T06:53:25;100155.26;;;15.44;54.64
51053;BME280;37093;37.716;-122.060;2023-06-26T06:55:54;100143.33;;;16.47;52.55
51053;BME280;37093;37.716;-122.060;2023-06-26T06:58:22;100143.80;;;15.57;53.95
51053;BME280;37093;37.716;-122.060;2023-06-26T07:01:11;100143.97;;;15.69;53.16
51053;BME280;37093;37.716;-122.060;2023-06-26T07:03:40;100144.59;;;15.07;52.48
51053;BME280;37093;37.716;-122.060;2023-06-26T07:06:08;100137.54;;;16.68;49.18
51053;BME280;37093;37.716;-122.060;2023-06-26T07:08:37;100140.32;;;17.13;51.22
51053;BME280;37093;37.716;-122.060;2023-06-26T07:11:05;100135.78;;;17.10;50.21
51053;BME280;37093;37.716;-122.060;2023-06-26T07:13:34;100131.74;;;16.79;51.42
51053;BME280;37093;37.716;-122.060;2023-06-26T07:16:02;100123.14;;;16.28;53.88
51053;BME280;37093;37.716;-122.060;2023-06-26T07:18:31;100121.99;;;16.40;52.87
51053;BME280;37093;37.716;-122.060;2023-06-26T07:20:59;100123.97;;;16.75;52.77
51053;BME280;37093;37.716;-122.060;2023-06-26T07:23:28;100119.44;;;16.35;53.02
51053;BME280;37093;37.716;-122.060;2023-06-26T07:25:56;100120.35;;;16.84;52.39
51053;BME280;37093;37.716;-122.060;2023-06-26T07:28:25;100115.85;;;15.91;54.68
51053;BME280;37093;37.716;-122.060;2023-06-26T07:30:53;100117.71;;;15.60;55.50
51053;BME280;37093;37.716;-122.060;2023-06-26T07:33:22;100120.29;;;15.52;55.15
51053;BME280;37093;37.716;-122.060;2023-06-26T07:35:51;100111.03;;;15.52;55.75
51053;BME280;37093;37.716;-122.060;2023-06-26T07:38:19;100108.71;;;15.56;56.03
51053;BME280;37093;37.716;-122.060;2023-06-26T07:40:48;100105.13;;;15.80;55.11
51053;BME280;37093;37.716;-122.060;2023-06-26T07:43:16;100100.03;;;16.19;54.00
51053;BME280;37093;37.716;-122.060;2023-06-26T07:45:45;100098.98;;;16.11;55.01
51053;BME280;37093;37.716;-122.060;2023-06-26T07:48:13;100101.19;;;15.17;58.61
51053;BME280;37093;37.716;-122.060;2023-06-26T07:50:42;100099.98;;;15.14;57.98
51053;BME280;37093;37.716;-122.060;2023-06-26T07:53:10;100098.21;;;14.87;58.26
51053;BME280;37093;37.716;-122.060;2023-06-26T07:55:39;100092.38;;;15.28;57.48
51053;BME280;37093;37.716;-122.060;2023-06-26T07:58:08;100091.01;;;15.64;56.91
51053;BME280;37093;37.716;-122.060;2023-06-26T08:00:36;100089.33;;;15.77;57.19
51053;BME280;37093;37.716;-122.060;2023-06-26T08:03:05;100084.52;;;16.04;55.02
51053;BME280;37093;37.716;-122.060;2023-06-26T08:05:33;100091.52;;;15.03;57.73
51053;BME280;37093;37.716;-122.060;2023-06-26T08:08:02;100089.74;;;15.54;57.89
51053;BME280;37093;37.716;-122.060;2023-06-26T08:10:30;100091.24;;;15.36;57.37
51053;BME280;37093;37.716;-122.060;2023-06-26T08:12:59;100089.40;;;15.39;57.58
51053;BME280;37093;37.716;-122.060;2023-06-26T08:15:27;100085.80;;;15.36;56.28
51053;BME280;37093;37.716;-122.060;2023-06-26T08:17:56;100084.06;;;15.47;55.46
51053;BME280;37093;37.716;-122.060;2023-06-26T08:20:24;100083.39;;;15.22;57.11
51053;BME280;37093;37.716;-122.060;2023-06-26T08:22:53;100079.44;;;15.90;54.95
51053;BME280;37093;37.716;-122.060;2023-06-26T08:25:21;100080.78;;;15.79;56.32
51053;BME280;37093;37.716;-122.060;2023-06-26T08:27:50;100078.22;;;15.38;57.35
51053;BME280;37093;37.716;-122.060;2023-06-26T08:30:18;100084.28;;;15.25;57.70
51053;BME280;37093;37.716;-122.060;2023-06-26T08:32:47;100079.61;;;15.70;57.35
51053;BME280;37093;37.716;-122.060;2023-06-26T08:35:16;100082.18;;;15.04;58.26
51053;BME280;37093;37.716;-122.060;2023-06-26T08:37:45;100077.62;;;15.81;56.64
51053;BME280;37093;37.716;-122.060;2023-06-26T08:40:17;100076.75;;;14.96;59.90
51053;BME280;37093;37.716;-122.060;2023-06-26T08:42:45;100073.24;;;15.20;60.15
51053;BME280;37093;37.716;-122.060;2023-06-26T08:45:14;100069.87;;;15.12;58.85
51053;BME280;37093;37.716;-122.060;2023-06-26T08:47:44;100064.29;;;15.51;57.73
51053;BME280;37093;37.716;-122.060;2023-06-26T08:50:14;100066.93;;;15.85;56.29
51053;BME280;37093;37.716;-122.060;2023-06-26T08:52:49;100065.89;;;15.83;57.86
51053;BME280;37093;37.716;-122.060;2023-06-26T08:55:21;100062.03;;;15.82;55.65
51053;BME280;37093;37.716;-122.060;2023-06-26T08:57:51;100063.92;;;15.73;57.37
51053;BME280;37093;37.716;-122.060;2023-06-26T09:00:20;100063.67;;;15.49;57.42
51053;BME280;37093;37.716;-122.060;2023-06-26T09:02:48;100064.80;;;15.11;59.37
51053;BME280;37093;37.716;-122.060;2023-06-26T09:05:16;100062.51;;;15.05;58.57
51053;BME280;37093;37.716;-122.060;2023-06-26T09:07:44;100062.93;;;15.65;58.02
51053;BME280;37093;37.716;-122.060;2023-06-26T09:10:13;100063.09;;;16.18;55.52
51053;BME280;37093;37.716;-122.060;2023-06-26T09:12:42;100060.34;;;15.59;57.00
51053;BME280;37093;37.716;-122.060;2023-06-26T09:15:15;100060.76;;;15.63;55.78
51053;BME280;37093;37.716;-122.060;2023-06-26T09:17:43;100062.43;;;15.39;57.56
51053;BME280;37093;37.716;-122.060;2023-06-26T09:20:11;100058.00;;;15.92;55.53
51053;BME280;37093;37.716;-122.060;2023-06-26T09:22:41;100056.53;;;16.13;53.99
51053;BME280;37093;37.716;-122.060;2023-06-26T09:25:10;100058.59;;;16.22;54.48
51053;BME280;37093;37.716;-122.060;2023-06-26T09:27:38;100060.17;;;16.64;52.58
51053;BME280;37093;37.716;-122.060;2023-06-26T09:30:08;100052.96;;;15.66;55.43
51053;BME280;37093;37.716;-122.060;2023-06-26T09:32:36;100049.70;;;16.50;53.15
51053;BME280;37093;37.716;-122.060;2023-06-26T09:35:05;100049.58;;;16.01;53.80
51053;BME280;37093;37.716;-122.060;2023-06-26T09:37:34;100046.48;;;15.89;55.07
51053;BME280;37093;37.716;-122.060;2023-06-26T09:40:05;100046.29;;;15.51;56.44
51053;BME280;37093;37.716;-122.060;2023-06-26T09:42:33;100049.43;;;15.84;54.93
51053;BME280;37093;37.716;-122.060;2023-06-26T09:45:03;100051.32;;;16.32;54.92
51053;BME280;37093;37.716;-122.060;2023-06-26T09:47:34;100048.07;;;16.33;54.40
51053;BME280;37093;37.716;-122.060;2023-06-26T09:50:04;100042.48;;;16.37;52.24
51053;BME280;37093;37.716;-122.060;2023-06-26T09:52:32;100039.57;;;16.53;52.96
51053;BME280;37093;37.716;-122.060;2023-06-26T09:55:10;100035.27;;;16.44;52.82
51053;BME280;37093;37.716;-122.060;2023-06-26T09:57:40;100034.16;;;16.65;51.94
51053;BME280;37093;37.716;-122.060;2023-06-26T10:00:10;100029.72;;;15.93;53.10
51053;BME280;37093;37.716;-122.060;2023-06-26T10:02:38;100025.13;;;16.37;52.93
51053;BME280;37093;37.716;-122.060;2023-06-26T10:05:07;100031.54;;;16.55;51.78
51053;BME280;37093;37.716;-122.060;2023-06-26T10:07:36;100027.85;;;16.24;53.16
51053;BME280;37093;37.716;-122.060;2023-06-26T10:10:06;100022.18;;;16.11;52.70
51053;BME280;37093;37.716;-122.060;2023-06-26T10:12:36;100020.61;;;16.19;53.46
51053;BME280;37093;37.716;-122.060;2023-06-26T10:15:05;100024.57;;;16.08;53.10
51053;BME280;37093;37.716;-122.060;2023-06-26T10:17:37;100026.60;;;16.16;53.83
51053;BME280;37093;37.716;-122.060;2023-06-26T10:20:08;100022.66;;;16.29;53.38
51053;BME280;37093;37.716;-122.060;2023-06-26T10:22:41;100025.14;;;16.74;52.39
51053;BME280;37093;37.716;-122.060;2023-06-26T10:25:12;100021.75;;;16.14;52.52
51053;BME280;37093;37.716;-122.060;2023-06-26T10:27:45;100022.29;;;15.63;54.78
51053;BME280;37093;37.716;-122.060;2023-06-26T10:30:17;100025.85;;;14.85;57.01
51053;BME280;37093;37.716;-122.060;2023-06-26T10:32:49;100022.20;;;15.72;55.09
51053;BME280;37093;37.716;-122.060;2023-06-26T10:35:18;100021.53;;;15.51;56.36
51053;BME280;37093;37.716;-122.060;2023-06-26T10:37:48;100022.19;;;15.75;55.45
51053;BME280;37093;37.716;-122.060;2023-06-26T10:40:25;100018.25;;;15.94;54.35
51053;BME280;37093;37.716;-122.060;2023-06-26T10:43:06;100017.64;;;16.68;53.37
51053;BME280;37093;37.716;-122.060;2023-06-26T10:45:35;100017.55;;;16.27;53.62
51053;BME280;37093;37.716;-122.060;2023-06-26T10:48:04;100018.69;;;16.83;51.68
51053;BME280;37093;37.716;-122.060;2023-06-26T10:50:33;100015.81;;;16.41;52.04
51053;BME280;37093;37.716;-122.060;2023-06-26T10:53:11;100016.36;;;16.48;53.26
51053;BME280;37093;37.716;-122.060;2023-06-26T10:55:43;100020.66;;;15.81;54.43
51053;BME280;37093;37.716;-122.060;2023-06-26T10:58:29;100015.80;;;16.23;52.86
51053;BME280;37093;37.716;-122.060;2023-06-26T11:01:30;100011.66;;;15.55;54.78
51053;BME280;37093;37.716;-122.060;2023-06-26T11:04:08;100011.09;;;15.83;54.43
51053;BME280;37093;37.716;-122.060;2023-06-26T11:06:38;100012.69;;;15.07;54.55
51053;BME280;37093;37.716;-122.060;2023-06-26T11:09:10;100014.33;;;15.29;55.19
51053;BME280;37093;37.716;-122.060;2023-06-26T11:12:10;100014.68;;;14.52;57.77
51053;BME280;37093;37.716;-122.060;2023-06-26T11:14:39;100015.29;;;15.52;54.61
51053;BME280;37093;37.716;-122.060;2023-06-26T11:17:07;100014.14;;;15.61;54.55
51053;BME280;37093;37.716;-122.060;2023-06-26T11:19:36;100013.33;;;15.96;53.85
51053;BME280;37093;37.716;-122.060;2023-06-26T11:22:05;100015.93;;;15.76;53.55
51053;BME280;37093;37.716;-122.060;2023-06-26T11:24:34;100013.92;;;15.25;55.23
51053;BME280;37093;37.716;-122.060;2023-06-26T11:27:05;100014.60;;;15.93;55.24
51053;BME280;37093;37.716;-122.060;2023-06-26T11:29:33;100012.72;;;15.18;54.52
51053;BME280;37093;37.716;-122.060;2023-06-26T11:32:04;100011.38;;;15.78;54.38
51053;BME280;37093;37.716;-122.060;2023-06-26T11:34:33;100009.70;;;15.74;54.97
51053;BME280;37093;37.716;-122.060;2023-06-26T11:37:01;100012.55;;;15.44;54.62
51053;BME280;37093;37.716;-122.060;2023-06-26T11:39:30;100014.91;;;15.29;54.89
51053;BME280;37093;37.716;-122.060;2023-06-26T11:42:00;100019.58;;;14.47;56.41
51053;BME280;37093;37.716;-122.060;2023-06-26T11:44:30;100014.19;;;15.47;55.42
51053;BME280;37093;37.716;-122.060;2023-06-26T11:46:59;100017.44;;;15.77;53.76
51053;BME280;37093;37.716;-122.060;2023-06-26T11:49:29;100015.37;;;15.27;54.33
51053;BME280;37093;37.716;-122.060;2023-06-26T11:51:57;100013.83;;;15.78;53.97
51053;BME280;37093;37.716;-122.060;2023-06-26T11:54:27;100011.99;;;15.97;53.32
51053;BME280;37093;37.716;-122.060;2023-06-26T11:56:56;100008.39;;;15.48;54.09
51053;BME280;37093;37.716;-122.060;2023-06-26T11:59:33;100004.48;;;15.79;51.84
51053;BME280;37093;37.716;-122.060;2023-06-26T12:02:05;100002.87;;;16.34;51.67
51053;BME280;37093;37.716;-122.060;2023-06-26T12:04:35;100004.72;;;15.63;52.66
51053;BME280;37093;37.716;-122.060;2023-06-26T12:07:05;100006.10;;;16.26;51.12
51053;BME280;37093;37.716;-122.060;2023-06-26T12:09:34;99998.52;;;16.06;52.63
51053;BME280;37093;37.716;-122.060;2023-06-26T12:12:07;99995.04;;;16.35;53.22
51053;BME280;37093;37.716;-122.060;2023-06-26T12:14:36;99998.51;;;15.44;53.90
51053;BME280;37093;37.716;-122.060;2023-06-26T12:17:07;100003.24;;;15.47;54.62
51053;BME280;37093;37.716;-122.060;2023-06-26T12:19:38;100000.58;;;14.79;55.92
51053;BME280;37093;37.716;-122.060;2023-06-26T12:22:08;100003.28;;;15.14;54.92
51053;BME280;37093;37.716;-122.060;2023-06-26T12:24:38;100000.11;;;15.15;54.42
51053;BME280;37093;37.716;-122.060;2023-06-26T12:27:09;99999.45;;;15.53;52.35
51053;BME280;37093;37.716;-122.060;2023-06-26T12:29:38;100002.14;;;15.99;53.15
51053;BME280;37093;37.716;-122.060;2023-06-26T12:32:10;99999.40;;;15.86;52.39